Time;durP1;ratioP1;P1;durP2;ratioP2;P2;SDS_P1;SDS_P2;PMS_P1;PMS_P2;Temp;Humidity;BMP_temperature;BMP_pressure;BME280_temperature;BME280_humidity;BME280_pressure;Samples;Min_cycle;Max_cycle;Signal;HPM_P1;HPM_P2
2023/03/25 00:01:41;;;;;;;;;;;9.70;99.90;;;;;;5093309;28;1373;-73
2023/03/25 00:04:07;;;;;;;;;;;9.60;99.90;;;;;;5111112;28;1100;-72
2023/03/25 00:06:33;;;;;;;;;;;9.70;99.90;;;;;;5111331;28;1286;-72
2023/03/25 00:08:59;;;;;;;;;;;9.70;99.90;;;;;;5083838;28;1137;-72
2023/03/25 00:11:25;;;;;;;;;;;9.70;99.90;;;;;;5111557;28;1390;-72
2023/03/25 00:13:50;;;;;;;;;;;9.70;99.90;;;;;;5111089;28;1164;-72
2023/03/25 00:16:17;;;;;;;;;;;9.70;99.90;;;;;;5110119;28;1913;-72
2023/03/25 00:18:43;;;;;;;;;;;9.60;99.90;;;;;;5111441;28;1096;-72
2023/03/25 00:21:10;;;;;;;;;;;9.60;99.90;;;;;;5111041;28;1100;-72
2023/03/25 00:23:37;;;;;;;;;;;9.60;99.90;;;;;;5111145;28;1096;-72
2023/03/25 00:26:03;;;;;;;;;;;9.60;99.90;;;;;;5101778;28;1173;-72
2023/03/25 00:28:32;;;;;;;;;;;9.50;99.90;;;;;;5111125;28;1131;-72
2023/03/25 00:30:59;;;;;;;;;;;9.60;99.90;;;;;;5110786;28;1128;-72
2023/03/25 00:33:25;;;;;;;;;;;9.60;99.90;;;;;;5109534;28;1081;-72
2023/03/25 00:35:53;;;;;;;;;;;9.50;99.90;;;;;;5109980;28;1906;-72
2023/03/25 00:38:19;;;;;;;;;;;9.60;99.90;;;;;;5110894;28;1100;-73
2023/03/25 00:40:47;;;;;;;;;;;9.60;99.90;;;;;;5110956;28;1156;-72
2023/03/25 00:43:13;;;;;;;;;;;9.60;99.90;;;;;;5112884;27;1071;-72
2023/03/25 00:45:39;;;;;;;;;;;9.60;99.90;;;;;;5110588;28;1167;-72
2023/03/25 00:48:04;;;;;;;;;;;9.50;99.90;;;;;;5110574;28;1089;-72
2023/03/25 00:50:30;;;;;;;;;;;9.40;99.90;;;;;;5110585;28;993;-72
2023/03/25 00:52:56;;;;;;;;;;;9.30;99.90;;;;;;5070020;28;1130;-72
2023/03/25 00:55:22;;;;;;;;;;;9.10;99.90;;;;;;5110553;28;1906;-72
2023/03/25 00:57:47;;;;;;;;;;;9.10;99.90;;;;;;5092112;28;1165;-72
2023/03/25 01:00:15;;;;;;;;;;;9.00;99.90;;;;;;5091389;28;1088;-72
2023/03/25 01:02:41;;;;;;;;;;;8.90;99.90;;;;;;5110396;28;1342;-72
2023/03/25 01:05:09;;;;;;;;;;;8.90;99.90;;;;;;5092129;28;1350;-72
2023/03/25 01:07:35;;;;;;;;;;;8.80;99.90;;;;;;5109951;28;1061;-72
2023/03/25 01:10:01;;;;;;;;;;;8.70;99.90;;;;;;5097209;28;1125;-72
2023/03/25 01:12:26;;;;;;;;;;;8.60;99.90;;;;;;5110553;27;1406;-72
2023/03/25 01:14:53;;;;;;;;;;;8.50;99.90;;;;;;5074634;28;1914;-71
2023/03/25 01:17:19;;;;;;;;;;;8.30;99.90;;;;;;5091808;28;1170;-71
2023/03/25 01:19:45;;;;;;;;;;;8.10;99.90;;;;;;5109077;28;1136;-71
2023/03/25 01:22:10;;;;;;;;;;;8.10;99.90;;;;;;5110168;28;1112;-70
2023/03/25 01:24:36;;;;;;;;;;;7.90;99.90;;;;;;5110030;28;1124;-72
2023/03/25 01:27:02;;;;;;;;;;;7.90;99.90;;;;;;5090427;28;1128;-72
2023/03/25 01:29:29;;;;;;;;;;;7.90;99.90;;;;;;5091515;28;1121;-72
2023/03/25 01:31:56;;;;;;;;;;;7.90;99.90;;;;;;5110259;28;1060;-71
2023/03/25 01:34:22;;;;;;;;;;;8.00;99.90;;;;;;5109241;28;1136;-69
2023/03/25 01:36:48;;;;;;;;;;;7.80;99.90;;;;;;5109485;28;2023;-69
2023/03/25 01:39:17;;;;;;;;;;;7.70;99.90;;;;;;5110133;28;1167;-70
2023/03/25 01:41:44;;;;;;;;;;;7.60;99.90;;;;;;5109175;28;1104;-71
2023/03/25 01:44:17;;;;;;;;;;;7.60;99.90;;;;;;5115573;27;1277;-72
2023/03/25 01:46:44;;;;;;;;;;;7.60;99.90;;;;;;5127359;27;1167;-73
2023/03/25 01:49:16;;;;;;;;;;;7.60;99.90;;;;;;5108961;28;1089;-73
2023/03/25 01:51:44;;;;;;;;;;;7.60;99.90;;;;;;5108479;28;1123;-73
2023/03/25 01:54:11;;;;;;;;;;;7.60;99.90;;;;;;5069509;28;1673;-72
2023/03/25 01:56:40;;;;;;;;;;;7.60;99.90;;;;;;5104368;28;1941;-72
2023/03/25 01:59:07;;;;;;;;;;;7.60;99.90;;;;;;5091560;28;1215;-72
2023/03/25 02:01:33;;;;;;;;;;;7.60;99.90;;;;;;5109010;28;1101;-72
2023/03/25 02:04:01;;;;;;;;;;;7.60;99.90;;;;;;5089978;28;1157;-72
2023/03/25 02:06:32;;;;;;;;;;;7.60;99.90;;;;;;5108284;28;1346;-72
2023/03/25 02:09:00;;;;;;;;;;;7.60;99.90;;;;;;5090748;28;1156;-71
2023/03/25 02:11:28;;;;;;;;;;;7.60;99.90;;;;;;5092781;28;1422;-71
2023/03/25 02:13:55;;;;;;;;;;;7.60;99.90;;;;;;5091504;28;1089;-71
2023/03/25 02:16:29;;;;;;;;;;;7.60;99.90;;;;;;5108733;28;1968;-71
2023/03/25 02:19:00;;;;;;;;;;;7.70;99.90;;;;;;5109067;28;1139;-71
2023/03/25 02:21:45;;;;;;;;;;;7.60;99.90;;;;;;5108925;28;1247;-71
2023/03/25 02:24:10;;;;;;;;;;;7.60;99.90;;;;;;5108820;28;1175;-71
2023/03/25 02:26:58;;;;;;;;;;;7.60;99.90;;;;;;5109127;28;1135;-71
2023/03/25 02:29:41;;;;;;;;;;;7.70;99.90;;;;;;5086755;28;1120;-72
2023/03/25 02:32:28;;;;;;;;;;;7.70;99.90;;;;;;5091057;28;1183;-71
2023/03/25 02:35:01;;;;;;;;;;;7.60;99.90;;;;;;5091149;28;1985;-71
2023/03/25 02:37:35;;;;;;;;;;;7.60;99.90;;;;;;5083759;28;1440;-71
2023/03/25 02:40:05;;;;;;;;;;;7.60;99.90;;;;;;5132122;27;1257;-71
2023/03/25 02:42:31;;;;;;;;;;;7.60;99.90;;;;;;5094624;28;1166;-71
2023/03/25 02:44:59;;;;;;;;;;;7.70;99.90;;;;;;5087398;28;1109;-71
2023/03/25 02:47:26;;;;;;;;;;;7.60;99.90;;;;;;5100099;28;1144;-71
2023/03/25 02:49:54;;;;;;;;;;;7.60;99.90;;;;;;5112929;28;1104;-72
2023/03/25 02:52:24;;;;;;;;;;;7.60;99.90;;;;;;5112503;28;1120;-72
2023/03/25 02:54:50;;;;;;;;;;;7.60;99.90;;;;;;5074813;28;1910;-72
2023/03/25 02:57:18;;;;;;;;;;;7.60;99.90;;;;;;5089437;28;1296;-72
2023/03/25 02:59:45;;;;;;;;;;;7.60;99.90;;;;;;5131246;27;1277;-72
2023/03/25 03:02:11;;;;;;;;;;;7.60;99.90;;;;;;5085657;28;1230;-72
2023/03/25 03:04:46;;;;;;;;;;;7.60;99.90;;;;;;5135603;27;1378;-72
2023/03/25 03:07:18;;;;;;;;;;;7.60;99.90;;;;;;5101182;28;1271;-72
2023/03/25 03:09:47;;;;;;;;;;;7.60;99.90;;;;;;5102453;28;1340;-72
2023/03/25 03:12:18;;;;;;;;;;;7.70;99.90;;;;;;5094783;28;1264;-72
2023/03/25 03:14:56;;;;;;;;;;;7.70;99.90;;;;;;5093573;28;1977;-71
2023/03/25 03:17:26;;;;;;;;;;;7.70;99.90;;;;;;5112410;28;1120;-71
2023/03/25 03:19:54;;;;;;;;;;;7.70;99.90;;;;;;5111982;28;1159;-71
2023/03/25 03:22:20;;;;;;;;;;;7.70;99.90;;;;;;5111892;28;1210;-72
2023/03/25 03:24:50;;;;;;;;;;;7.60;99.90;;;;;;5112437;28;1140;-71
2023/03/25 03:27:15;;;;;;;;;;;7.60;99.90;;;;;;5093318;28;1463;-72
2023/03/25 03:29:47;;;;;;;;;;;7.70;99.90;;;;;;5094137;28;1093;-71
2023/03/25 03:32:17;;;;;;;;;;;7.70;99.90;;;;;;5111456;28;1165;-72
2023/03/25 03:34:52;;;;;;;;;;;7.70;99.90;;;;;;5111684;28;1901;-71
2023/03/25 03:37:21;;;;;;;;;;;7.70;99.90;;;;;;5112493;28;1127;-71
2023/03/25 03:39:47;;;;;;;;;;;7.70;99.90;;;;;;5111479;28;1101;-71
2023/03/25 03:42:17;;;;;;;;;;;7.70;99.90;;;;;;5093526;28;1175;-72
2023/03/25 03:44:45;;;;;;;;;;;7.70;99.90;;;;;;5112547;28;914;-72
2023/03/25 03:47:14;;;;;;;;;;;7.70;99.90;;;;;;5091325;28;1029;-72
2023/03/25 03:49:43;;;;;;;;;;;7.70;99.90;;;;;;5127292;27;1172;-71
2023/03/25 03:52:13;;;;;;;;;;;7.70;99.90;;;;;;5112041;28;1170;-71
2023/03/25 03:54:44;;;;;;;;;;;7.70;99.90;;;;;;5103381;28;1913;-72
2023/03/25 03:57:14;;;;;;;;;;;7.70;99.90;;;;;;5079486;28;994;-71
2023/03/25 03:59:45;;;;;;;;;;;7.70;99.90;;;;;;5111707;28;1109;-72
2023/03/25 04:02:15;;;;;;;;;;;7.60;99.90;;;;;;5110608;28;1222;-72
2023/03/25 04:04:41;;;;;;;;;;;7.60;99.90;;;;;;5111837;28;1092;-72
2023/03/25 04:07:13;;;;;;;;;;;7.60;99.90;;;;;;5096806;28;1592;-71
2023/03/25 04:09:43;;;;;;;;;;;7.60;99.90;;;;;;5092403;28;1084;-71
2023/03/25 04:12:13;;;;;;;;;;;7.50;99.90;;;;;;5112604;27;1441;-71
2023/03/25 04:14:39;;;;;;;;;;;7.50;99.90;;;;;;5092139;28;1945;-71
2023/03/25 04:17:05;;;;;;;;;;;7.50;99.90;;;;;;5110409;28;1069;-71
2023/03/25 04:19:32;;;;;;;;;;;7.50;99.90;;;;;;5095532;28;1216;-71
2023/03/25 04:22:00;;;;;;;;;;;7.50;99.90;;;;;;5093087;28;1716;-71
2023/03/25 04:24:30;;;;;;;;;;;7.50;99.90;;;;;;5091930;28;1096;-71
2023/03/25 04:26:58;;;;;;;;;;;7.50;99.90;;;;;;5111477;28;1057;-72
2023/03/25 04:29:24;;;;;;;;;;;7.40;99.90;;;;;;5126396;27;1185;-72
2023/03/25 04:31:53;;;;;;;;;;;7.50;99.90;;;;;;5111214;28;1092;-72
2023/03/25 04:34:19;;;;;;;;;;;7.50;99.90;;;;;;5110743;28;1088;-72
2023/03/25 04:36:48;;;;;;;;;;;7.50;99.90;;;;;;5110178;28;1971;-72
2023/03/25 04:39:16;;;;;;;;;;;7.50;99.90;;;;;;5130171;27;1083;-72
2023/03/25 04:41:42;;;;;;;;;;;7.50;99.90;;;;;;5092195;28;1118;-72
2023/03/25 04:44:09;;;;;;;;;;;7.50;99.90;;;;;;5110186;28;1163;-72
2023/03/25 04:46:35;;;;;;;;;;;7.50;99.90;;;;;;5126719;27;1103;-72
2023/03/25 04:49:04;;;;;;;;;;;7.50;99.90;;;;;;5111006;28;962;-72
2023/03/25 04:51:31;;;;;;;;;;;7.60;99.90;;;;;;5109974;28;1031;-72
2023/03/25 04:53:57;;;;;;;;;;;7.60;99.90;;;;;;5110386;28;1084;-72
2023/03/25 04:56:23;;;;;;;;;;;7.60;99.90;;;;;;5092205;28;2003;-72
2023/03/25 04:58:49;;;;;;;;;;;7.60;99.90;;;;;;5108798;28;1171;-71
2023/03/25 05:01:29;;;;;;;;;;;7.60;99.90;;;;;;5106052;28;1215;-71
2023/03/25 05:03:56;;;;;;;;;;;7.50;99.90;;;;;;5110273;28;1138;-72
2023/03/25 05:06:22;;;;;;;;;;;7.50;99.90;;;;;;5074842;28;1311;-72
2023/03/25 05:08:48;;;;;;;;;;;7.50;99.90;;;;;;5109887;28;1121;-71
2023/03/25 05:11:13;;;;;;;;;;;7.50;99.90;;;;;;5111022;27;1296;-72
2023/03/25 05:13:39;;;;;;;;;;;8.40;99.90;;;;;;5110095;28;1591;-72
2023/03/25 05:16:05;;;;;;;;;;;7.40;99.90;;;;;;5091476;28;1938;-73
2023/03/25 05:18:30;;;;;;;;;;;7.50;99.90;;;;;;5109391;28;1216;-72
2023/03/25 05:20:56;;;;;;;;;;;7.50;99.90;;;;;;5110129;28;1104;-72
2023/03/25 05:23:22;;;;;;;;;;;7.50;99.90;;;;;;5091646;28;1206;-72
2023/03/25 05:25:49;;;;;;;;;;;7.50;99.90;;;;;;5109210;28;1152;-72
2023/03/25 05:28:15;;;;;;;;;;;7.50;99.90;;;;;;5110525;28;1176;-72
2023/03/25 05:30:42;;;;;;;;;;;7.50;99.90;;;;;;5109816;28;1132;-72
2023/03/25 05:33:09;;;;;;;;;;;7.50;99.90;;;;;;5109346;28;1124;-72
2023/03/25 05:35:35;;;;;;;;;;;7.50;99.90;;;;;;5109406;28;2039;-72
2023/03/25 05:38:02;;;;;;;;;;;7.50;99.90;;;;;;5125665;27;1185;-72
2023/03/25 05:40:27;;;;;;;;;;;7.50;99.90;;;;;;5090911;28;1132;-72
2023/03/25 05:42:54;;;;;;;;;;;7.50;99.90;;;;;;5091699;28;1098;-72
2023/03/25 05:45:21;;;;;;;;;;;7.60;99.90;;;;;;5108945;28;1158;-72
2023/03/25 05:47:47;;;;;;;;;;;7.50;99.90;;;;;;5109132;28;1188;-72
2023/03/25 05:50:14;;;;;;;;;;;7.50;99.90;;;;;;5109481;28;1120;-72
2023/03/25 05:52:41;;;;;;;;;;;7.60;99.90;;;;;;5094207;28;1160;-72
2023/03/25 05:55:10;;;;;;;;;;;7.60;99.90;;;;;;5114390;27;1906;-72
2023/03/25 05:57:36;;;;;;;;;;;7.50;99.90;;;;;;5109483;28;1084;-72
2023/03/25 06:00:06;;;;;;;;;;;7.60;99.90;;;;;;5091254;28;1184;-72
2023/03/25 06:02:37;;;;;;;;;;;7.60;99.90;;;;;;5108299;28;1435;-72
2023/03/25 06:05:05;;;;;;;;;;;7.60;99.90;;;;;;5109567;28;1361;-72
2023/03/25 06:07:31;;;;;;;;;;;7.60;99.90;;;;;;5109284;28;1144;-72
2023/03/25 06:09:56;;;;;;;;;;;7.60;99.90;;;;;;5089524;28;1195;-72
2023/03/25 06:12:22;;;;;;;;;;;7.60;99.90;;;;;;5110263;28;1512;-72
2023/03/25 06:14:52;;;;;;;;;;;7.60;99.90;;;;;;5124342;28;1983;-72
2023/03/25 06:17:20;;;;;;;;;;;7.60;99.90;;;;;;5109512;28;1167;-72
2023/03/25 06:19:46;;;;;;;;;;;7.60;99.90;;;;;;5109193;28;1228;-72
2023/03/25 06:22:12;;;;;;;;;;;7.60;99.90;;;;;;5108493;28;1131;-72
2023/03/25 06:24:39;;;;;;;;;;;7.60;99.90;;;;;;5109528;28;1152;-73
2023/03/25 06:27:06;;;;;;;;;;;7.60;99.90;;;;;;5091531;28;1155;-72
2023/03/25 06:29:33;;;;;;;;;;;7.60;99.90;;;;;;5108748;28;1157;-72
2023/03/25 06:31:58;;;;;;;;;;;7.60;99.90;;;;;;5090745;28;1116;-72
2023/03/25 06:34:25;;;;;;;;;;;7.60;99.90;;;;;;5091165;28;1105;-72
2023/03/25 06:36:52;;;;;;;;;;;7.70;99.90;;;;;;5107792;28;1913;-72
2023/03/25 06:39:19;;;;;;;;;;;7.60;99.90;;;;;;5108980;28;1172;-72
2023/03/25 06:41:45;;;;;;;;;;;7.70;99.90;;;;;;5091208;28;1116;-72
2023/03/25 06:44:19;;;;;;;;;;;7.70;99.90;;;;;;5110760;28;1463;-72
2023/03/25 06:46:44;;;;;;;;;;;7.70;99.90;;;;;;5095607;28;1134;-72
2023/03/25 06:49:22;;;;;;;;;;;7.70;99.90;;;;;;5109566;28;1088;-73
2023/03/25 06:51:48;;;;;;;;;;;7.80;99.90;;;;;;5107008;28;1096;-72
2023/03/25 06:54:14;;;;;;;;;;;7.80;99.90;;;;;;5108459;28;1179;-73
2023/03/25 06:56:40;;;;;;;;;;;9.30;99.90;;;;;;5108642;28;1886;-72
2023/03/25 06:59:06;;;;;;;;;;;7.80;99.90;;;;;;5090668;28;1156;-72
2023/03/25 07:01:31;;;;;;;;;;;7.80;99.90;;;;;;5108773;28;1128;-73
2023/03/25 07:03:57;;;;;;;;;;;7.70;99.90;;;;;;5106133;28;1133;-73
2023/03/25 07:06:23;;;;;;;;;;;7.50;99.90;;;;;;5109162;28;1236;-73
2023/03/25 07:08:49;;;;;;;;;;;7.40;99.90;;;;;;5108941;28;1120;-73
2023/03/25 07:11:17;;;;;;;;;;;7.30;99.90;;;;;;5109148;28;1403;-73
2023/03/25 07:13:43;;;;;;;;;;;7.30;99.90;;;;;;5089837;28;1125;-73
2023/03/25 07:16:10;;;;;;;;;;;7.40;99.90;;;;;;5108728;28;1914;-73
2023/03/25 07:18:35;;;;;;;;;;;7.40;99.90;;;;;;5108391;28;1082;-73
2023/03/25 07:21:02;;;;;;;;;;;7.60;99.90;;;;;;5109258;28;1242;-73
2023/03/25 07:23:27;;;;;;;;;;;7.70;99.90;;;;;;5112459;28;1183;-74
2023/03/25 07:25:55;;;;;;;;;;;7.90;99.90;;;;;;5112084;28;1101;-73
2023/03/25 07:28:21;;;;;;;;;;;8.00;99.90;;;;;;5112567;28;1164;-73
2023/03/25 07:30:47;;;;;;;;;;;8.00;99.90;;;;;;5114436;27;1180;-74
2023/03/25 07:33:13;;;;;;;;;;;8.00;99.90;;;;;;5113802;27;1131;-73
2023/03/25 07:35:39;;;;;;;;;;;8.00;99.90;;;;;;5114320;27;1913;-73
2023/03/25 07:38:05;;;;;;;;;;;8.00;99.90;;;;;;5110927;28;1097;-74
2023/03/25 07:40:30;;;;;;;;;;;8.10;99.90;;;;;;5107714;28;1260;-73
2023/03/25 07:42:56;;;;;;;;;;;8.30;99.90;;;;;;5121701;27;1152;-73
2023/03/25 07:45:34;;;;;;;;;;;8.50;99.90;;;;;;5113942;27;1167;-73
2023/03/25 07:48:00;;;;;;;;;;;9.00;99.90;;;;;;5121552;27;1107;-73
2023/03/25 07:50:26;;;;;;;;;;;8.60;99.90;;;;;;5112243;28;1159;-73
2023/03/25 07:52:52;;;;;;;;;;;8.50;99.90;;;;;;5093428;28;1202;-73
2023/03/25 07:55:18;;;;;;;;;;;8.40;99.90;;;;;;5111322;28;1919;-73
2023/03/25 07:57:44;;;;;;;;;;;8.30;99.90;;;;;;5111334;28;1093;-73
2023/03/25 08:00:10;;;;;;;;;;;8.30;99.90;;;;;;5111366;28;1132;-73
2023/03/25 08:02:42;;;;;;;;;;;8.20;99.90;;;;;;5111291;28;1230;-73
2023/03/25 08:05:08;;;;;;;;;;;8.00;99.90;;;;;;5100129;28;1400;-73
2023/03/25 08:07:33;;;;;;;;;;;7.90;99.90;;;;;;5111940;27;1287;-73
2023/03/25 08:09:59;;;;;;;;;;;7.90;99.90;;;;;;5093575;28;1637;-72
2023/03/25 08:12:25;;;;;;;;;;;7.80;99.90;;;;;;5093248;28;1407;-72
2023/03/25 08:14:51;;;;;;;;;;;7.80;99.90;;;;;;5098815;28;1918;-72
2023/03/25 08:17:16;;;;;;;;;;;7.70;99.90;;;;;;5093309;28;1096;-72
2023/03/25 08:19:42;;;;;;;;;;;7.50;99.90;;;;;;5111917;28;1124;-71
2023/03/25 08:22:08;;;;;;;;;;;7.50;99.90;;;;;;5110886;28;1113;-72
2023/03/25 08:24:34;;;;;;;;;;;7.40;99.90;;;;;;5111063;28;1157;-73
2023/03/25 08:26:59;;;;;;;;;;;7.30;99.90;;;;;;5093429;28;1117;-73
2023/03/25 08:29:26;;;;;;;;;;;7.40;99.90;;;;;;5110587;28;1206;-73
2023/03/25 08:31:52;;;;;;;;;;;7.70;99.90;;;;;;5110669;28;1144;-73
2023/03/25 08:34:18;;;;;;;;;;;7.90;99.90;;;;;;5109985;28;1278;-73
2023/03/25 08:36:44;;;;;;;;;;;8.10;99.90;;;;;;5091841;28;1985;-73
2023/03/25 08:39:11;;;;;;;;;;;8.10;99.90;;;;;;5111071;28;1022;-73
2023/03/25 08:41:37;;;;;;;;;;;8.00;99.90;;;;;;5092410;28;1118;-73
2023/03/25 08:44:04;;;;;;;;;;;7.90;99.90;;;;;;5129511;27;1146;-73
2023/03/25 08:46:30;;;;;;;;;;;7.80;99.90;;;;;;5131716;27;1087;-73
2023/03/25 08:48:55;;;;;;;;;;;7.80;99.90;;;;;;5128143;27;1171;-73
2023/03/25 08:51:21;;;;;;;;;;;7.80;99.90;;;;;;5102433;28;1191;-73
2023/03/25 08:53:47;;;;;;;;;;;7.90;99.90;;;;;;5116873;27;1116;-73
2023/03/25 08:56:13;;;;;;;;;;;8.10;99.90;;;;;;5102867;28;1913;-73
2023/03/25 08:58:39;;;;;;;;;;;8.10;99.90;;;;;;5109357;28;1171;-73
2023/03/25 09:01:05;;;;;;;;;;;8.10;99.90;;;;;;5111088;28;1158;-73
2023/03/25 09:03:31;;;;;;;;;;;8.10;99.90;;;;;;5110015;28;1159;-73
2023/03/25 09:05:57;;;;;;;;;;;8.10;99.90;;;;;;5110189;28;1291;-73
2023/03/25 09:08:23;;;;;;;;;;;8.10;99.90;;;;;;5109943;28;1116;-73
2023/03/25 09:10:49;;;;;;;;;;;8.10;99.90;;;;;;5110131;28;1157;-73
2023/03/25 09:13:15;;;;;;;;;;;8.10;99.90;;;;;;5093066;28;1418;-73
2023/03/25 09:15:42;;;;;;;;;;;8.10;99.90;;;;;;5118962;27;1968;-73
2023/03/25 09:18:09;;;;;;;;;;;8.20;99.90;;;;;;5110023;28;1100;-73
2023/03/25 09:20:34;;;;;;;;;;;8.20;99.90;;;;;;5109881;28;1108;-73
2023/03/25 09:23:00;;;;;;;;;;;8.20;99.90;;;;;;5109618;27;1214;-73
2023/03/25 09:25:27;;;;;;;;;;;8.20;99.90;;;;;;5108759;28;1203;-73
2023/03/25 09:27:52;;;;;;;;;;;8.20;99.90;;;;;;5109867;28;1164;-73
2023/03/25 09:30:18;;;;;;;;;;;8.10;99.90;;;;;;5110116;28;1096;-74
2023/03/25 09:32:44;;;;;;;;;;;8.00;99.90;;;;;;5091394;28;1156;-73
2023/03/25 09:35:10;;;;;;;;;;;8.00;99.90;;;;;;5108902;28;1909;-73
2023/03/25 09:37:36;;;;;;;;;;;8.00;99.90;;;;;;5111111;27;1172;-73
2023/03/25 09:40:04;;;;;;;;;;;8.10;99.90;;;;;;5108823;27;3544;-73
2023/03/25 09:42:36;;;;;;;;;;;8.20;99.90;;;;;;5108356;28;1245;-73
2023/03/25 09:45:20;;;;;;;;;;;8.30;99.90;;;;;;5114581;27;3557;-73
2023/03/25 09:48:04;;;;;;;;;;;8.30;99.90;;;;;;5098580;28;1116;-74
2023/03/25 09:50:30;;;;;;;;;;;8.30;99.90;;;;;;5113001;27;1139;-73
2023/03/25 09:53:00;;;;;;;;;;;8.40;99.90;;;;;;5085195;28;1273;-73
2023/03/25 09:55:28;;;;;;;;;;;8.40;99.90;;;;;;5125143;27;1976;-73
2023/03/25 09:57:56;;;;;;;;;;;8.40;99.90;;;;;;5105713;28;3381;-73
2023/03/25 10:00:23;;;;;;;;;;;8.50;99.90;;;;;;5093434;28;1384;-73
2023/03/25 10:02:54;;;;;;;;;;;8.60;99.90;;;;;;5110757;28;1164;-73
2023/03/25 10:05:38;;;;;;;;;;;8.80;99.90;;;;;;5093886;28;1314;-74
2023/03/25 10:08:07;;;;;;;;;;;9.00;99.90;;;;;;5109251;28;1183;-74
2023/03/25 10:10:33;;;;;;;;;;;9.10;99.90;;;;;;5090647;28;1102;-74
2023/03/25 10:13:11;;;;;;;;;;;9.10;99.90;;;;;;5090860;28;1391;-74
2023/03/25 10:15:37;;;;;;;;;;;9.20;99.90;;;;;;5098701;28;1930;-74
2023/03/25 10:18:07;;;;;;;;;;;9.30;99.90;;;;;;5109067;28;1176;-74
2023/03/25 10:20:40;;;;;;;;;;;9.20;99.90;;;;;;5110002;28;1258;-74
2023/03/25 10:23:14;;;;;;;;;;;9.20;99.90;;;;;;5095546;28;1097;-74
2023/03/25 10:25:44;;;;;;;;;;;9.20;99.90;;;;;;5093333;28;3502;-74
2023/03/25 10:28:14;;;;;;;;;;;9.10;99.90;;;;;;5106466;28;3439;-74
2023/03/25 10:30:43;;;;;;;;;;;9.10;99.90;;;;;;5109765;28;1246;-74
2023/03/25 10:33:15;;;;;;;;;;;9.50;99.90;;;;;;5127568;27;3439;-73
2023/03/25 10:35:44;;;;;;;;;;;9.70;99.90;;;;;;5107457;28;1923;-73
2023/03/25 10:38:17;;;;;;;;;;;9.90;99.90;;;;;;5109034;28;1162;-74
2023/03/25 10:40:48;;;;;;;;;;;9.90;99.90;;;;;;5109025;28;1137;-73
2023/03/25 10:43:24;;;;;;;;;;;10.20;99.90;;;;;;5107939;28;1459;-74
2023/03/25 10:45:51;;;;;;;;;;;10.60;99.90;;;;;;5090156;28;3717;-74
2023/03/25 10:48:20;;;;;;;;;;;10.60;99.90;;;;;;5108586;28;1387;-75
2023/03/25 10:50:46;;;;;;;;;;;10.70;99.90;;;;;;5107886;28;1124;-75
2023/03/25 10:53:18;;;;;;;;;;;10.70;99.90;;;;;;5090074;28;1180;-75
2023/03/25 10:55:45;;;;;;;;;;;10.60;99.90;;;;;;5109206;28;1913;-74
2023/03/25 10:58:15;;;;;;;;;;;10.00;99.90;;;;;;5112329;28;1128;-74
2023/03/25 11:00:40;;;;;;;;;;;9.90;99.90;;;;;;5102105;28;1130;-73
2023/03/25 11:03:14;;;;;;;;;;;10.40;99.90;;;;;;5110937;28;1250;-74
2023/03/25 11:05:40;;;;;;;;;;;10.60;99.90;;;;;;5100864;28;1283;-73
2023/03/25 11:08:08;;;;;;;;;;;10.70;99.90;;;;;;5111655;27;1207;-74
2023/03/25 11:10:33;;;;;;;;;;;11.00;99.90;;;;;;5120838;27;1107;-74
2023/03/25 11:13:02;;;;;;;;;;;10.90;99.90;;;;;;5113112;27;1497;-74
2023/03/25 11:15:29;;;;;;;;;;;10.70;99.90;;;;;;5106002;28;1916;-74
2023/03/25 11:17:58;;;;;;;;;;;10.40;99.90;;;;;;5133245;27;1144;-74
2023/03/25 11:20:26;;;;;;;;;;;10.10;99.90;;;;;;5115613;27;1461;-74
2023/03/25 11:22:53;;;;;;;;;;;9.90;99.90;;;;;;5111970;27;2412;-73
2023/03/25 11:25:25;;;;;;;;;;;9.70;99.90;;;;;;5108929;27;2366;-74
2023/03/25 11:27:54;;;;;;;;;;;9.40;99.90;;;;;;5122134;27;2012;-74
2023/03/25 11:30:20;;;;;;;;;;;9.30;99.90;;;;;;5117445;27;1382;-74
2023/03/25 11:32:58;;;;;;;;;;;9.40;99.90;;;;;;5117047;27;2384;-74
2023/03/25 11:35:26;;;;;;;;;;;9.60;99.90;;;;;;5112333;27;1976;-74
2023/03/25 11:37:54;;;;;;;;;;;9.60;99.90;;;;;;5102663;28;1374;-74
2023/03/25 11:40:20;;;;;;;;;;;9.60;99.90;;;;;;5111206;28;2052;-75
2023/03/25 11:42:51;;;;;;;;;;;9.80;99.90;;;;;;5101256;27;1083;-75
2023/03/25 11:45:20;;;;;;;;;;;10.00;99.90;;;;;;5111854;27;1121;-75
2023/03/25 11:47:46;;;;;;;;;;;10.10;99.90;;;;;;5110698;27;1230;-75
2023/03/25 11:50:20;;;;;;;;;;;10.30;99.90;;;;;;5111175;28;1215;-75
2023/03/25 11:52:46;;;;;;;;;;;10.40;99.90;;;;;;5110289;28;1241;-75
2023/03/25 11:55:15;;;;;;;;;;;10.70;99.90;;;;;;5133831;27;1906;-75
2023/03/25 11:57:43;;;;;;;;;;;11.30;99.90;;;;;;5111504;28;2322;-75
2023/03/25 12:00:29;;;;;;;;;;;11.50;99.90;;;;;;5093078;28;1121;-75
2023/03/25 12:03:01;;;;;;;;;;;11.60;99.90;;;;;;5124515;27;1890;-75
2023/03/25 12:05:26;;;;;;;;;;;11.70;99.90;;;;;;5110876;27;1220;-75
2023/03/25 12:07:59;;;;;;;;;;;11.60;99.90;;;;;;5110543;28;1143;-75
2023/03/25 12:10:29;;;;;;;;;;;11.50;99.90;;;;;;5111014;28;977;-75
2023/03/25 12:13:18;;;;;;;;;;;11.40;99.90;;;;;;5092978;28;1541;-75
2023/03/25 12:15:50;;;;;;;;;;;11.40;99.90;;;;;;5092391;28;1901;-75
2023/03/25 12:18:20;;;;;;;;;;;11.70;99.90;;;;;;5110949;28;1096;-75
2023/03/25 12:20:52;;;;;;;;;;;12.40;99.90;;;;;;5092502;28;1105;-74
2023/03/25 12:23:19;;;;;;;;;;;13.50;99.90;;;;;;5110981;28;1193;-74
2023/03/25 12:25:45;;;;;;;;;;;13.40;99.90;;;;;;5110854;28;1111;-74
2023/03/25 12:28:31;;;;;;;;;;;13.10;99.90;;;;;;5110691;28;1128;-74
2023/03/25 12:31:17;;;;;;;;;;;12.70;99.90;;;;;;5092632;28;2050;-74
2023/03/25 12:33:49;;;;;;;;;;;12.40;99.90;;;;;;5110494;28;1104;-75
2023/03/25 12:36:20;;;;;;;;;;;12.40;99.90;;;;;;5110240;28;1979;-74
2023/03/25 12:38:52;;;;;;;;;;;12.30;99.90;;;;;;5092894;28;1100;-74
2023/03/25 12:41:26;;;;;;;;;;;12.20;99.90;;;;;;5114902;27;1139;-75
2023/03/25 12:43:57;;;;;;;;;;;11.90;99.90;;;;;;5110271;27;1158;-75
2023/03/25 12:46:31;;;;;;;;;;;11.70;99.90;;;;;;5109567;28;1112;-79
2023/03/25 12:49:02;;;;;;;;;;;11.50;99.90;;;;;;5091543;28;1230;-76
2023/03/25 12:51:50;;;;;;;;;;;11.50;99.90;;;;;;5100624;28;1207;-77
2023/03/25 12:54:26;;;;;;;;;;;11.30;99.90;;;;;;5115199;27;1211;-77
2023/03/25 12:56:52;;;;;;;;;;;11.30;99.90;;;;;;5105513;28;3633;-77
2023/03/25 12:59:21;;;;;;;;;;;11.40;99.90;;;;;;5110433;28;3689;-78
2023/03/25 13:01:56;;;;;;;;;;;11.90;99.90;;;;;;5126197;27;1292;-77
2023/03/25 13:04:23;;;;;;;;;;;12.70;99.90;;;;;;5091679;28;3769;-78
2023/03/25 13:06:51;;;;;;;;;;;13.10;99.90;;;;;;5109303;28;1270;-77
2023/03/25 13:09:20;;;;;;;;;;;12.90;99.90;;;;;;5110118;28;1009;-77
2023/03/25 13:11:50;;;;;;;;;;;12.50;99.90;;;;;;5110731;27;1410;-77
2023/03/25 13:14:21;;;;;;;;;;;12.10;99.90;;;;;;5109135;28;1263;-77
2023/03/25 13:16:49;;;;;;;;;;;11.80;99.90;;;;;;5079040;28;2009;-77
2023/03/25 13:19:17;;;;;;;;;;;11.60;99.90;;;;;;5091533;28;1129;-78
2023/03/25 13:21:49;;;;;;;;;;;11.40;99.90;;;;;;5110089;28;1167;-76
2023/03/25 13:24:17;;;;;;;;;;;11.50;99.90;;;;;;5092636;27;1085;-76
2023/03/25 13:26:46;;;;;;;;;;;11.40;99.90;;;;;;5112534;27;1116;-82
2023/03/25 13:29:21;;;;;;;;;;;11.30;99.90;;;;;;5130533;27;1159;-77
2023/03/25 13:31:48;;;;;;;;;;;11.20;99.90;;;;;;5129754;27;1142;-75
2023/03/25 13:34:15;;;;;;;;;;;11.10;99.90;;;;;;5091897;28;1206;-74
2023/03/25 13:36:42;;;;;;;;;;;10.70;99.90;;;;;;5111676;27;1945;-74
2023/03/25 13:39:14;;;;;;;;;;;10.50;99.90;;;;;;5109027;27;1111;-75
2023/03/25 13:41:42;;;;;;;;;;;10.40;99.90;;;;;;5106761;28;1203;-74
2023/03/25 13:44:23;;;;;;;;;;;10.40;99.90;;;;;;5116218;27;1108;-75
2023/03/25 13:46:52;;;;;;;;;;;10.50;99.90;;;;;;5128567;27;1166;-75
2023/03/25 13:49:19;;;;;;;;;;;10.50;99.90;;;;;;5091406;28;1116;-75
2023/03/25 13:51:45;;;;;;;;;;;10.30;99.90;;;;;;5106252;28;2180;-74
2023/03/25 13:54:18;;;;;;;;;;;10.30;99.90;;;;;;5107331;28;2024;-75
2023/03/25 13:56:49;;;;;;;;;;;10.40;99.90;;;;;;5109812;28;1918;-74
2023/03/25 13:59:15;;;;;;;;;;;10.50;99.90;;;;;;5108891;28;1183;-75
2023/03/25 14:01:46;;;;;;;;;;;10.60;99.90;;;;;;5090871;28;2037;-74
2023/03/25 14:04:20;;;;;;;;;;;10.60;99.90;;;;;;5109253;28;1097;-74
2023/03/25 14:06:52;;;;;;;;;;;10.40;99.90;;;;;;5090834;28;1308;-75
2023/03/25 14:09:21;;;;;;;;;;;10.30;99.90;;;;;;5108781;28;1734;-78
2023/03/25 14:11:48;;;;;;;;;;;9.80;99.90;;;;;;5110090;28;1462;-78
2023/03/25 14:14:16;;;;;;;;;;;9.40;99.90;;;;;;5104078;28;3668;-78
2023/03/25 14:16:48;;;;;;;;;;;9.20;99.90;;;;;;5107355;28;3760;-78
2023/03/25 14:19:16;;;;;;;;;;;9.10;99.90;;;;;;5109115;28;1088;-77
2023/03/25 14:21:46;;;;;;;;;;;9.00;99.90;;;;;;5108654;28;3772;-78
2023/03/25 14:24:28;;;;;;;;;;;9.00;99.90;;;;;;5108267;28;1005;-78
2023/03/25 14:27:01;;;;;;;;;;;8.60;99.90;;;;;;5108889;28;1192;-77
2023/03/25 14:29:46;;;;;;;;;;;8.00;99.90;;;;;;5109590;28;1077;-77
2023/03/25 14:32:14;;;;;;;;;;;7.80;99.90;;;;;;5112946;28;1172;-79
2023/03/25 14:34:41;;;;;;;;;;;7.60;99.90;;;;;;5113287;28;1122;-78
2023/03/25 14:37:06;;;;;;;;;;;7.50;99.90;;;;;;5113467;27;1969;-77
2023/03/25 14:39:32;;;;;;;;;;;7.50;99.90;;;;;;5113742;28;1227;-78
2023/03/25 14:41:59;;;;;;;;;;;7.60;99.90;;;;;;5116726;27;1219;-78
2023/03/25 14:44:28;;;;;;;;;;;7.80;99.90;;;;;;5119317;27;1184;-77
2023/03/25 14:47:01;;;;;;;;;;;8.40;99.90;;;;;;5112737;27;1206;-77
2023/03/25 14:49:48;;;;;;;;;;;8.90;99.90;;;;;;5106897;27;3569;-77